METAR AND TAF INFORMATION
METAR FOR LGKO
ADDS - METARS form results

(0810 UTC 21 October 2020)
Data provider http://aviationweather.gov/metar/data/
 
METAR text: LGKO 210750Z 35007KT 9999 FEW018 23/16 Q1017
Conditions at: LGKO (KOS AIRPORT , GR) observed 0750 UTC 21 October 2020
Temperature: 23.0°C (73°F)
Dewpoint: 16.0°C (61°F) [RH = 65%]
Pressure (altimeter): 30.03 inches Hg (1017.0 mb)
Winds: from the N (350 degrees) at 8 MPH (7 knots; 3.6 m/s)
Visibility: 6 or more miles (10+ km)
Ceiling: at least 12,000 feet AGL
Clouds: few clouds at 1800 feet AGL
Weather: no significant weather observed at this time

METAR text: LGKO 210720Z 36007KT 9999 FEW018 22/16 Q1016
Conditions at: LGKO (KOS AIRPORT , GR) observed 0720 UTC 21 October 2020
Temperature: 22.0°C (72°F)
Dewpoint: 16.0°C (61°F) [RH = 69%]
Pressure (altimeter): 30.00 inches Hg (1016.0 mb)
Winds: from the N (360 degrees) at 8 MPH (7 knots; 3.6 m/s)
Visibility: 6 or more miles (10+ km)
Ceiling: at least 12,000 feet AGL
Clouds: few clouds at 1800 feet AGL
Weather: no significant weather observed at this time

Forecast for: LGKO (KOS AIRPORT , GR)
Text: TAF LGKO 210500Z 2106/2206 12010KT 9999 SCT018
Forecast period: 0600 UTC 21 October 2020 to 0600 UTC 22 October 2020
Forecast type: FROM: standard forecast or significant change
Winds: from the ESE (120 degrees) at 12 MPH (10 knots; 5.1 m/s)
Visibility: 6 or more miles (10+ km)
Ceiling: at least 12,000 feet AGL
Clouds: scattered clouds at 1800 feet AGL
Weather: no significant weather forecast for this period
Text: PROB30
Forecast period: 0600 to 1800 UTC 21 October 2020
Forecast type: TEMPORARY: The following changes expected for less than half the time period
Visibility: 3 miles (5 km)
Ceiling: 2000 feet AGL
Clouds: few clouds at 1300 feet AGL
few clouds at 1800 feet AGL
broken clouds at 2000 feet AGL
Weather: RA  (moderate rain)
Text: TEMPO 2106/2118 5000 RA FEW013 FEW018TCU BKN020
Forecast period: 0600 to 0900 UTC 21 October 2020
Forecast type: TEMPORARY: The following changes expected for less than half the time period
Visibility: 3 miles (5 km)
Ceiling: 2000 feet AGL
Clouds: scattered clouds at 1200 feet AGL
few clouds at 1800 feet AGL
broken clouds at 2000 feet AGL
Weather: TSRA  (rain associated with thunderstorm(s))

 AIRPORT MAP

 RUNWAY INFORMATION
Runway 14 Runway length 7841 ft Runway width 148 ft
Runway elevation 412 ft Runway displaced threshold 0 ft Runway heading 148
Runway 32 Runway length 7841 ft Runway width 148 ft
Runway elevation 373 ft Runway displaced threshold 0 ft Runway heading 328

 AIRPORT FREQUENCIES
Type A/G Name IPPOKRATIS Frequency 563.7 MHZ
Type APP Name APP Frequency 119.95 MHZ
Type ATIS Name ATIS Frequency 126.95 MHZ
Type TWR Name IPPOKRATIS Frequency 121.05 MHZ

 AIRPORT NEAR NAVIGATION AIDS
Type VOR-DME Name Kos Frequency 109000 KHZ
Type NDB Name Kos Frequency 311 KHZ



Powered by Virtual Airlines Manager [v2.6.2]